Dream Angel — 3EEV — position and weather

sailwx.info

Track history (hours):
 
Tides and Currents Weather Stations Pressure Air Temp Water Temp Dewpoint Dewpoint Depression Visibility Wind Speed Wind Dir Waves Ship Positions

Dream Angel

Last reported at 2017-Nov-08 09:24 UTC. Time now 2017-Nov-23 11:26 UTC.
Position N 35°00' E 139°43'.
Warning: this ship's position is 15 days out of date.

Length 187 m; draft 7.6 m.

Type: Cargo ship. MMSI: 371820000.

Date/timePositionNaut miles runAvg speedWind from/ knotsBaromVisibWave heightAir tempDewpointWater temp
2017-Nov-08 09:24N 35°00' E 139°43'615.5
2017-Nov-08 09:00N 35°06' E 139°44'612.1
2017-Nov-08 08:30N 35°12' E 139°45'611.5
2017-Nov-08 08:00N 35°18' E 139°44'612.7
2017-Nov-08 07:30N 35°24' E 139°42'4 7.4
2017-Nov-08 06:58N 35°28' E 139°42'1 1.1
2017-Nov-08 06:28N 35°28' E 139°41'0 0.0
2017-Nov-08 05:55N 35°28' E 139°41'0 0.0
2017-Nov-08 05:28N 35°28' E 139°41'0 0.0
2017-Nov-08 04:55N 35°28' E 139°41'0 0.0
2017-Nov-08 04:28N 35°28' E 139°41'0 0.0
2017-Nov-08 03:58N 35°28' E 139°41'0 0.0
2017-Nov-08 03:28N 35°28' E 139°41'0 0.0
2017-Nov-08 02:58N 35°28' E 139°41'0 0.0
2017-Nov-08 02:28N 35°28' E 139°41'0 0.0
2017-Nov-08 01:58N 35°28' E 139°41'0 0.0
2017-Nov-08 01:28N 35°28' E 139°41'0 0.0
2017-Nov-08 00:58N 35°28' E 139°41'0 0.0
2017-Nov-08 00:28N 35°28' E 139°41'0 0.0
2017-Nov-07 23:58N 35°28' E 139°41'0 0.0
2017-Nov-07 23:28N 35°28' E 139°41'0 0.0
2017-Nov-07 22:55N 35°28' E 139°41'0 0.0
2017-Nov-07 22:28N 35°28' E 139°41'0 0.0
2017-Nov-07 21:58N 35°28' E 139°41'0 0.0
2017-Nov-07 21:28N 35°28' E 139°41'0 0.0
2017-Nov-07 20:58N 35°28' E 139°41'0 0.0
2017-Nov-07 20:28N 35°28' E 139°41'0 0.0
2017-Nov-07 19:58N 35°28' E 139°41'0 0.0
2017-Nov-07 19:28N 35°28' E 139°41'0 0.0
2017-Nov-07 18:58N 35°28' E 139°41'0 0.0
2017-Nov-07 18:28N 35°28' E 139°41'0 0.0
2017-Nov-07 17:58N 35°28' E 139°41'0 0.0
2017-Nov-07 17:28N 35°28' E 139°41'0 0.0
2017-Nov-07 16:58N 35°28' E 139°41'0 0.0
2017-Nov-07 16:28N 35°28' E 139°41'0 0.0
2017-Nov-07 15:58N 35°28' E 139°41'0 0.0
2017-Nov-07 15:22N 35°28' E 139°41'0 0.0
2017-Nov-07 14:58N 35°28' E 139°41'0 0.0
2017-Nov-07 14:28N 35°28' E 139°41'0 0.0
2017-Nov-07 13:58N 35°28' E 139°41'0 0.0
2017-Nov-07 13:28N 35°28' E 139°41'0 0.0
2017-Nov-07 12:58N 35°28' E 139°41'0 0.0
2017-Nov-07 12:28N 35°28' E 139°41'0 0.0
2017-Nov-07 11:55N 35°28' E 139°41'0 0.0
2017-Nov-07 11:22N 35°28' E 139°41'0 0.0
2017-Nov-07 10:58N 35°28' E 139°41'0 0.0
2017-Nov-07 10:28N 35°28' E 139°41'0 0.0
2017-Nov-07 09:58N 35°28' E 139°41'0 0.0
2017-Nov-07 09:28N 35°28' E 139°41'0 0.0
2017-Nov-07 08:58N 35°28' E 139°41'0 0.0
2017-Nov-07 08:28N 35°28' E 139°41'0 0.0
2017-Nov-07 07:58N 35°28' E 139°41'0 0.0
2017-Nov-07 07:28N 35°28' E 139°41'0 0.0
2017-Nov-07 06:55N 35°28' E 139°41'0 0.0
2017-Nov-07 06:29N 35°28' E 139°41'1 2.5
2017-Nov-07 06:00N 35°27' E 139°43'4 8.7
2017-Nov-07 05:30N 35°24' E 139°46'612.8
2017-Nov-07 05:00N 35°18' E 139°45'612.8
2017-Nov-07 04:30N 35°12' E 139°47'510.5
2017-Nov-07 04:00N 35°07' E 139°45'610.6
2017-Nov-07 03:29N 35°02' E 139°42'214 7.4
2017-Nov-05 22:41N 34°32' E 135°24'0 0.3
2017-Nov-05 22:31N 34°32' E 135°24'3 5.3
2017-Nov-05 22:00N 34°33' E 135°21'511.3
2017-Nov-05 21:30N 34°31' E 135°15'815.5
2017-Nov-05 21:00N 34°27' E 135°07'816.5
2017-Nov-05 20:30N 34°20' E 135°01'714.4
2017-Nov-05 20:00N 34°13' E 134°60'510.6
2017-Nov-05 19:30N 34°08' E 134°60'5 9.9
2017-Nov-05 19:00N 34°03' E 134°59'510.0
2017-Nov-05 18:30N 33°58' E 135°00'  
Track history (hours):
 
Tides and Currents Weather Stations Pressure Air Temp Water Temp Dewpoint Dewpoint Depression Visibility Wind Speed Wind Dir Waves Ship Positions

Dream Angel

Last reported at 2017-Nov-08 09:24 UTC. Time now 2017-Nov-23 11:26 UTC.
Position N 35°00' E 139°43'.
Warning: this ship's position is 15 days out of date.

Length 187 m; draft 7.6 m.

Type: Cargo ship. MMSI: 371820000.

Date/timePositionNaut miles runAvg speedWind from/ knotsBaromVisibWave heightAir tempDewpointWater temp
2017-Nov-08 09:24N 35°00' E 139°43'615.5
2017-Nov-08 09:00N 35°06' E 139°44'612.1
2017-Nov-08 08:30N 35°12' E 139°45'611.5
2017-Nov-08 08:00N 35°18' E 139°44'612.7
2017-Nov-08 07:30N 35°24' E 139°42'4 7.4
2017-Nov-08 06:58N 35°28' E 139°42'1 1.1
2017-Nov-08 06:28N 35°28' E 139°41'0 0.0
2017-Nov-08 05:55N 35°28' E 139°41'0 0.0
2017-Nov-08 05:28N 35°28' E 139°41'0 0.0
2017-Nov-08 04:55N 35°28' E 139°41'0 0.0
2017-Nov-08 04:28N 35°28' E 139°41'0 0.0
2017-Nov-08 03:58N 35°28' E 139°41'0 0.0
2017-Nov-08 03:28N 35°28' E 139°41'0 0.0
2017-Nov-08 02:58N 35°28' E 139°41'0 0.0
2017-Nov-08 02:28N 35°28' E 139°41'0 0.0
2017-Nov-08 01:58N 35°28' E 139°41'0 0.0
2017-Nov-08 01:28N 35°28' E 139°41'0 0.0
2017-Nov-08 00:58N 35°28' E 139°41'0 0.0
2017-Nov-08 00:28N 35°28' E 139°41'0 0.0
2017-Nov-07 23:58N 35°28' E 139°41'0 0.0
2017-Nov-07 23:28N 35°28' E 139°41'0 0.0
2017-Nov-07 22:55N 35°28' E 139°41'0 0.0
2017-Nov-07 22:28N 35°28' E 139°41'0 0.0
2017-Nov-07 21:58N 35°28' E 139°41'0 0.0
2017-Nov-07 21:28N 35°28' E 139°41'0 0.0
2017-Nov-07 20:58N 35°28' E 139°41'0 0.0
2017-Nov-07 20:28N 35°28' E 139°41'0 0.0
2017-Nov-07 19:58N 35°28' E 139°41'0 0.0
2017-Nov-07 19:28N 35°28' E 139°41'0 0.0
2017-Nov-07 18:58N 35°28' E 139°41'0 0.0
2017-Nov-07 18:28N 35°28' E 139°41'0 0.0
2017-Nov-07 17:58N 35°28' E 139°41'0 0.0
2017-Nov-07 17:28N 35°28' E 139°41'0 0.0
2017-Nov-07 16:58N 35°28' E 139°41'0 0.0
2017-Nov-07 16:28N 35°28' E 139°41'0 0.0
2017-Nov-07 15:58N 35°28' E 139°41'0 0.0
2017-Nov-07 15:22N 35°28' E 139°41'0 0.0
2017-Nov-07 14:58N 35°28' E 139°41'0 0.0
2017-Nov-07 14:28N 35°28' E 139°41'0 0.0
2017-Nov-07 13:58N 35°28' E 139°41'0 0.0
2017-Nov-07 13:28N 35°28' E 139°41'0 0.0
2017-Nov-07 12:58N 35°28' E 139°41'0 0.0
2017-Nov-07 12:28N 35°28' E 139°41'0 0.0
2017-Nov-07 11:55N 35°28' E 139°41'0 0.0
2017-Nov-07 11:22N 35°28' E 139°41'0 0.0
2017-Nov-07 10:58N 35°28' E 139°41'0 0.0
2017-Nov-07 10:28N 35°28' E 139°41'0 0.0
2017-Nov-07 09:58N 35°28' E 139°41'0 0.0
2017-Nov-07 09:28N 35°28' E 139°41'0 0.0
2017-Nov-07 08:58N 35°28' E 139°41'0 0.0
2017-Nov-07 08:28N 35°28' E 139°41'0 0.0
2017-Nov-07 07:58N 35°28' E 139°41'0 0.0
2017-Nov-07 07:28N 35°28' E 139°41'0 0.0
2017-Nov-07 06:55N 35°28' E 139°41'0 0.0
2017-Nov-07 06:29N 35°28' E 139°41'1 2.5
2017-Nov-07 06:00N 35°27' E 139°43'4 8.7
2017-Nov-07 05:30N 35°24' E 139°46'612.8
2017-Nov-07 05:00N 35°18' E 139°45'612.8
2017-Nov-07 04:30N 35°12' E 139°47'510.5
2017-Nov-07 04:00N 35°07' E 139°45'610.6
2017-Nov-07 03:29N 35°02' E 139°42'214 7.4
2017-Nov-05 22:41N 34°32' E 135°24'0 0.3
2017-Nov-05 22:31N 34°32' E 135°24'3 5.3
2017-Nov-05 22:00N 34°33' E 135°21'511.3
2017-Nov-05 21:30N 34°31' E 135°15'815.5
2017-Nov-05 21:00N 34°27' E 135°07'816.5
2017-Nov-05 20:30N 34°20' E 135°01'714.4
2017-Nov-05 20:00N 34°13' E 134°60'510.6
2017-Nov-05 19:30N 34°08' E 134°60'5 9.9
2017-Nov-05 19:00N 34°03' E 134°59'510.0
2017-Nov-05 18:30N 33°58' E 135°00'  

Dump ship's entire track history